createdAt,value
2022-10-17T00:00:14.672Z,100320.72
2022-10-17T00:01:16.413Z,100315.69
2022-10-17T00:02:18.179Z,100320.25
2022-10-17T00:03:19.941Z,100317.13
2022-10-17T00:04:22.591Z,100317.91
2022-10-17T00:05:25.147Z,100319.75
2022-10-17T00:06:27.254Z,100320.69
2022-10-17T00:07:30.905Z,100320.75
2022-10-17T00:08:32.935Z,100321.56
2022-10-17T00:09:34.645Z,100317.22
2022-10-17T00:10:36.554Z,100326.88
2022-10-17T00:11:38.554Z,100326.94
2022-10-17T00:12:40.842Z,100324.44
2022-10-17T00:13:43.189Z,100292.28
2022-10-17T00:14:44.938Z,100338.75
2022-10-17T00:15:46.621Z,100334.53
2022-10-17T00:16:48.734Z,100341.59
2022-10-17T00:17:50.530Z,100334.72
2022-10-17T00:18:52.393Z,100330.44
2022-10-17T00:19:54.218Z,100345.47
2022-10-17T00:20:56.205Z,100334.97
2022-10-17T00:21:58.357Z,100344.78
2022-10-17T00:23:01.572Z,100342.28
2022-10-17T00:24:03.852Z,100319.91
2022-10-17T00:25:06.130Z,100342.06
2022-10-17T00:26:07.825Z,100340.00
2022-10-17T00:27:09.672Z,100347.75
2022-10-17T00:28:15.671Z,100365.31
2022-10-17T00:29:17.437Z,100343.50
2022-10-17T00:30:19.361Z,100345.22
2022-10-17T00:31:22.943Z,100343.50
2022-10-17T00:32:24.468Z,100347.91
2022-10-17T00:33:27.349Z,100349.63
2022-10-17T00:34:31.166Z,100352.25
2022-10-17T00:35:33.010Z,100348.63
2022-10-17T00:36:34.998Z,100351.94
2022-10-17T00:37:37.236Z,100357.00
2022-10-17T00:38:40.645Z,100356.84
2022-10-17T00:39:42.587Z,100354.09
2022-10-17T00:40:44.905Z,100352.28
2022-10-17T00:41:46.660Z,100364.44
2022-10-17T00:42:48.416Z,100366.03
2022-10-17T00:44:04.122Z,100359.97
2022-10-17T00:45:28.206Z,100361.22
2022-10-17T00:46:32.997Z,100371.22
2022-10-17T00:47:36.646Z,100367.06
2022-10-17T00:48:38.503Z,100375.03
2022-10-17T00:49:40.907Z,100361.53
2022-10-17T00:50:46.998Z,100363.38
2022-10-17T00:51:54.239Z,100358.38
2022-10-17T00:53:01.538Z,100366.56
2022-10-17T00:54:05.922Z,100366.00
2022-10-17T00:55:16.500Z,100368.81
2022-10-17T00:56:21.192Z,100370.78
2022-10-17T00:57:23.049Z,100376.25
2022-10-17T00:58:24.798Z,100391.34
2022-10-17T00:59:28.067Z,100379.19
2022-10-17T01:00:30.604Z,100368.56
2022-10-17T01:01:32.422Z,100374.69
2022-10-17T01:02:34.218Z,100383.25
2022-10-17T01:03:35.955Z,100378.28
2022-10-17T01:04:40.677Z,100372.22
2022-10-17T01:05:43.021Z,100367.09
2022-10-17T01:06:44.896Z,100377.72
2022-10-17T01:07:49.074Z,100377.94
2022-10-17T01:08:50.796Z,100378.91
2022-10-17T01:09:52.640Z,100378.19
2022-10-17T01:10:59.070Z,100370.41
2022-10-17T01:12:22.131Z,100380.94
2022-10-17T01:13:36.066Z,100378.50
2022-10-17T01:14:59.349Z,100375.03
2022-10-17T01:16:11.553Z,100378.66
2022-10-17T01:17:16.225Z,100380.47
2022-10-17T01:18:21.156Z,100378.91
2022-10-17T01:19:32.157Z,100380.63
2022-10-17T01:20:52.381Z,100381.59
2022-10-17T01:22:00.479Z,100380.75
2022-10-17T01:23:20.441Z,100377.34
2022-10-17T01:24:43.610Z,100381.66
2022-10-17T01:26:13.171Z,100375.38
2022-10-17T01:27:38.757Z,100384.16
2022-10-17T01:28:52.685Z,100392.81
2022-10-17T01:30:32.015Z,100381.72
2022-10-17T01:31:55.776Z,100362.06
2022-10-17T01:33:08.973Z,100382.03
2022-10-17T01:34:22.261Z,100377.84
2022-10-17T01:35:33.382Z,100385.81
2022-10-17T01:36:40.871Z,100378.09
2022-10-17T01:37:55.955Z,100379.00
2022-10-17T01:39:05.160Z,100379.16
2022-10-17T01:40:23.432Z,100382.69
2022-10-17T01:41:35.129Z,100373.25
2022-10-17T01:42:48.738Z,100378.47
2022-10-17T01:43:56.052Z,100373.34
2022-10-17T01:45:19.786Z,100342.56
2022-10-17T01:46:37.268Z,100372.00
2022-10-17T01:47:42.042Z,100369.28
2022-10-17T01:48:46.286Z,100371.81
2022-10-17T01:49:51.834Z,100377.84
2022-10-17T01:51:36.518Z,100367.41
2022-10-17T01:52:48.119Z,100371.03
2022-10-17T01:53:55.039Z,100366.03
2022-10-17T01:55:14.753Z,100370.22
2022-10-17T01:56:18.435Z,100370.16
2022-10-17T01:57:40.419Z,100373.53
2022-10-17T01:58:51.935Z,100381.25
2022-10-17T01:59:56.479Z,100375.63
2022-10-17T02:01:02.327Z,100367.44
2022-10-17T02:02:06.259Z,100361.72
2022-10-17T02:03:12.298Z,100352.03
2022-10-17T02:04:14.231Z,100357.41
2022-10-17T02:05:19.159Z,100369.34
2022-10-17T02:06:20.905Z,100367.69
2022-10-17T02:07:23.137Z,100373.03
2022-10-17T02:08:39.957Z,100361.47
2022-10-17T02:09:41.768Z,100359.50
2022-10-17T02:10:47.394Z,100368.94
2022-10-17T02:12:21.499Z,100370.50
2022-10-17T02:13:40.799Z,100368.28
2022-10-17T02:15:08.514Z,100367.25
2022-10-17T02:16:26.637Z,100361.81
2022-10-17T02:17:56.447Z,100359.22
2022-10-17T02:19:00.983Z,100387.22
2022-10-17T02:20:02.667Z,100360.94
2022-10-17T02:21:16.250Z,100372.34
2022-10-17T02:22:37.883Z,100365.47
2022-10-17T02:23:42.798Z,100356.88
2022-10-17T02:24:53.469Z,100357.09
2022-10-17T02:26:18.245Z,100357.22
2022-10-17T02:27:52.290Z,100359.84
2022-10-17T02:29:08.481Z,100367.97
2022-10-17T02:30:20.146Z,100367.88
2022-10-17T02:31:29.134Z,100354.13
2022-10-17T02:33:03.547Z,100356.59
2022-10-17T02:34:14.040Z,100370.50
2022-10-17T02:35:18.711Z,100345.72
2022-10-17T02:36:26.055Z,100359.63
2022-10-17T02:37:30.592Z,100355.38
2022-10-17T02:38:34.315Z,100360.56
2022-10-17T02:39:40.339Z,100371.69
2022-10-17T02:40:44.794Z,100361.34
2022-10-17T02:41:48.153Z,100366.59
2022-10-17T02:42:53.066Z,100351.19
2022-10-17T02:43:57.677Z,100365.81
2022-10-17T02:45:03.385Z,100348.72
2022-10-17T02:46:07.188Z,100366.03
2022-10-17T02:47:22.082Z,100370.00
2022-10-17T02:48:30.884Z,100368.28
2022-10-17T02:49:39.583Z,100364.88
2022-10-17T02:51:02.573Z,100364.03
2022-10-17T02:52:13.241Z,100363.69
2022-10-17T02:53:25.424Z,100366.31
2022-10-17T02:55:03.827Z,100366.44
2022-10-17T02:56:14.284Z,100365.47
2022-10-17T02:57:50.859Z,100364.47
2022-10-17T02:58:58.584Z,100367.19
2022-10-17T03:00:02.422Z,100369.94
2022-10-17T03:01:04.919Z,100371.84
2022-10-17T03:02:07.260Z,100375.38
2022-10-17T03:03:20.661Z,100365.34
2022-10-17T03:04:24.158Z,100369.56
2022-10-17T03:05:28.860Z,100367.09
2022-10-17T03:06:30.542Z,100368.66
2022-10-17T03:07:33.907Z,100366.97
2022-10-17T03:08:36.134Z,100366.97
2022-10-17T03:09:38.069Z,100373.03
2022-10-17T03:10:41.051Z,100363.44
2022-10-17T03:11:43.356Z,100350.63
2022-10-17T03:12:45.740Z,100351.63
2022-10-17T03:13:47.716Z,100363.63
2022-10-17T03:14:49.631Z,100356.72
2022-10-17T03:15:51.354Z,100359.31
2022-10-17T03:16:53.161Z,100367.09
2022-10-17T03:17:55.551Z,100361.84
2022-10-17T03:18:57.345Z,100365.38
2022-10-17T03:19:59.376Z,100365.34
2022-10-17T03:21:01.349Z,100349.03
2022-10-17T03:22:03.095Z,100356.91
2022-10-17T03:23:05.062Z,100361.84
2022-10-17T03:24:07.308Z,100365.25
2022-10-17T03:25:09.833Z,100362.53
2022-10-17T03:26:11.809Z,100353.47
2022-10-17T03:27:14.418Z,100368.44
2022-10-17T03:28:16.333Z,100354.75
2022-10-17T03:29:18.085Z,100370.28
2022-10-17T03:30:20.344Z,100360.94
2022-10-17T03:31:22.283Z,100376.44
2022-10-17T03:32:24.167Z,100374.59
2022-10-17T03:33:25.920Z,100369.34
2022-10-17T03:34:27.765Z,100378.09
2022-10-17T03:35:29.628Z,100376.25
2022-10-17T03:36:31.597Z,100340.34
2022-10-17T03:37:33.326Z,100374.53
2022-10-17T03:38:36.020Z,100369.56
2022-10-17T03:39:37.873Z,100370.50
2022-10-17T03:40:39.619Z,100371.13
2022-10-17T03:41:41.404Z,100371.84
2022-10-17T03:42:43.415Z,100368.56
2022-10-17T03:43:45.521Z,100377.03
2022-10-17T03:44:47.308Z,100378.59
2022-10-17T03:45:49.021Z,100381.88
2022-10-17T03:46:51.120Z,100389.75
2022-10-17T03:47:53.590Z,100382.44
2022-10-17T03:48:55.353Z,100385.72
2022-10-17T03:50:00.352Z,100397.22
2022-10-17T03:51:07.975Z,100378.91
2022-10-17T03:52:13.606Z,100388.69
2022-10-17T03:53:15.539Z,100388.91
2022-10-17T03:54:17.320Z,100394.31
2022-10-17T03:55:19.062Z,100359.41
2022-10-17T03:56:23.642Z,100391.09
2022-10-17T03:57:25.450Z,100392.00
2022-10-17T03:58:27.154Z,100392.22
2022-10-17T03:59:28.868Z,100388.88
2022-10-17T04:00:30.547Z,100377.59
2022-10-17T04:01:32.548Z,100383.72
2022-10-17T04:02:35.369Z,100398.13
2022-10-17T04:03:37.311Z,100397.06
2022-10-17T04:04:39.119Z,100393.44
2022-10-17T04:05:41.116Z,100401.41
2022-10-17T04:06:42.895Z,100399.88
2022-10-17T04:07:44.722Z,100387.84
2022-10-17T04:08:46.457Z,100397.69
2022-10-17T04:09:48.613Z,100398.72
2022-10-17T04:10:50.388Z,100399.50
2022-10-17T04:11:52.259Z,100403.78
2022-10-17T04:12:54.072Z,100404.75
2022-10-17T04:13:57.664Z,100395.41
2022-10-17T04:14:59.614Z,100396.44
2022-10-17T04:16:06.758Z,100407.66
2022-10-17T04:17:08.622Z,100399.78
2022-10-17T04:18:10.518Z,100404.91
2022-10-17T04:19:14.992Z,100407.47
2022-10-17T04:20:16.845Z,100405.59
2022-10-17T04:21:19.478Z,100413.47
2022-10-17T04:22:21.419Z,100409.03
2022-10-17T04:23:23.259Z,100398.03
2022-10-17T04:24:25.841Z,100406.25
2022-10-17T04:25:27.832Z,100411.44
2022-10-17T04:26:29.905Z,100402.63
2022-10-17T04:27:31.674Z,100414.13
2022-10-17T04:28:33.950Z,100406.31
2022-10-17T04:29:35.866Z,100408.13
2022-10-17T04:30:41.124Z,100408.31
2022-10-17T04:31:45.257Z,100411.22
2022-10-17T04:32:47.129Z,100412.31
2022-10-17T04:33:50.408Z,100409.03
2022-10-17T04:34:52.338Z,100410.34
2022-10-17T04:36:00.227Z,100407.06
2022-10-17T04:37:02.758Z,100410.66
2022-10-17T04:38:04.618Z,100418.84
2022-10-17T04:39:06.506Z,100411.16
2022-10-17T04:40:09.229Z,100415.81
2022-10-17T04:41:14.250Z,100423.75
2022-10-17T04:42:17.037Z,100427.16
2022-10-17T04:43:18.862Z,100420.19
2022-10-17T04:44:21.117Z,100422.03
2022-10-17T04:45:22.782Z,100418.63
2022-10-17T04:46:24.711Z,100416.19
2022-10-17T04:47:26.411Z,100418.06
2022-10-17T04:48:29.299Z,100423.44
2022-10-17T04:49:31.592Z,100415.81
2022-10-17T04:50:33.383Z,100420.31
2022-10-17T04:51:35.240Z,100407.69
2022-10-17T04:52:39.716Z,100422.38
2022-10-17T04:53:42.877Z,100424.34
2022-10-17T04:54:44.769Z,100427.00
2022-10-17T04:55:46.794Z,100430.75
2022-10-17T04:56:49.219Z,100427.25
2022-10-17T04:57:50.854Z,100429.19
2022-10-17T04:58:52.815Z,100431.81
2022-10-17T04:59:54.578Z,100432.72
2022-10-17T05:00:56.718Z,100427.66
2022-10-17T05:01:58.957Z,100425.22
2022-10-17T05:03:00.805Z,100430.63
2022-10-17T05:04:03.014Z,100438.56
2022-10-17T05:05:05.204Z,100439.59
2022-10-17T05:06:09.745Z,100429.28
2022-10-17T05:07:11.413Z,100438.09
2022-10-17T05:08:13.291Z,100433.88
2022-10-17T05:09:15.245Z,100433.16
2022-10-17T05:10:17.486Z,100441.03
2022-10-17T05:11:27.697Z,100446.31
2022-10-17T05:12:29.643Z,100442.84
2022-10-17T05:13:32.939Z,100439.41
2022-10-17T05:14:34.718Z,100443.06
2022-10-17T05:15:36.926Z,100444.78
2022-10-17T05:16:38.710Z,100442.31
2022-10-17T05:17:40.686Z,100448.47
2022-10-17T05:18:42.587Z,100445.13
2022-10-17T05:19:44.291Z,100442.59
2022-10-17T05:20:45.888Z,100448.78
2022-10-17T05:21:47.729Z,100448.84
2022-10-17T05:22:49.688Z,100444.59
2022-10-17T05:23:52.690Z,100432.50
2022-10-17T05:24:54.573Z,100452.50
2022-10-17T05:25:57.002Z,100437.91
2022-10-17T05:26:58.828Z,100407.94
2022-10-17T05:28:00.941Z,100448.22
2022-10-17T05:29:03.914Z,100445.78
2022-10-17T05:30:06.395Z,100433.66
2022-10-17T05:31:09.834Z,100446.56
2022-10-17T05:32:12.171Z,100453.56
2022-10-17T05:33:13.973Z,100457.06
2022-10-17T05:34:15.733Z,100451.03
2022-10-17T05:35:18.404Z,100453.63
2022-10-17T05:36:20.477Z,100451.00
2022-10-17T05:37:23.002Z,100461.34
2022-10-17T05:38:25.794Z,100474.41
2022-10-17T05:39:28.273Z,100459.75
2022-10-17T05:40:30.251Z,100459.66
2022-10-17T05:41:32.220Z,100457.94
2022-10-17T05:42:34.111Z,100457.06
2022-10-17T05:43:36.293Z,100456.25
2022-10-17T05:44:39.764Z,100463.22
2022-10-17T05:45:41.637Z,100459.75
2022-10-17T05:46:43.454Z,100459.75
2022-10-17T05:47:45.451Z,100462.44
2022-10-17T05:48:47.500Z,100469.38
2022-10-17T05:49:52.300Z,100459.75
2022-10-17T05:50:59.875Z,100449.50
2022-10-17T05:52:02.166Z,100470.22
2022-10-17T05:53:03.954Z,100464.09
2022-10-17T05:54:06.846Z,100469.38
2022-10-17T05:55:09.338Z,100452.69
2022-10-17T05:56:13.327Z,100468.72
2022-10-17T05:57:15.126Z,100470.34
2022-10-17T05:58:22.203Z,100466.00
2022-10-17T05:59:29.223Z,100470.22
2022-10-17T06:00:31.023Z,100468.38
2022-10-17T06:01:33.930Z,100466.59
2022-10-17T06:02:35.731Z,100461.28
2022-10-17T06:03:37.663Z,100462.19
2022-10-17T06:04:45.620Z,100467.00
2022-10-17T06:05:47.626Z,100468.59
2022-10-17T06:06:49.674Z,100444.81
2022-10-17T06:07:52.676Z,100469.91
2022-10-17T06:08:55.381Z,100465.44
2022-10-17T06:09:59.200Z,100470.25
2022-10-17T06:11:03.860Z,100466.16
2022-10-17T06:12:08.440Z,100469.53
2022-10-17T06:13:10.972Z,100486.84
2022-10-17T06:14:12.707Z,100477.16
2022-10-17T06:15:14.600Z,100479.16
2022-10-17T06:16:16.290Z,100479.72
2022-10-17T06:17:17.951Z,100460.75
2022-10-17T06:18:20.126Z,100466.78
2022-10-17T06:19:22.405Z,100482.56
2022-10-17T06:20:24.341Z,100477.91
2022-10-17T06:21:27.510Z,100489.63
2022-10-17T06:22:29.717Z,100482.31
2022-10-17T06:23:32.397Z,100477.53
2022-10-17T06:24:34.327Z,100483.28
2022-10-17T06:25:36.172Z,100483.00
2022-10-17T06:26:37.954Z,100481.06
2022-10-17T06:27:40.698Z,100485.34
2022-10-17T06:28:42.746Z,100487.78
2022-10-17T06:29:44.830Z,100490.34
2022-10-17T06:30:46.589Z,100495.47
2022-10-17T06:31:48.463Z,100492.50
2022-10-17T06:32:50.189Z,100476.13
2022-10-17T06:33:52.222Z,100491.53
2022-10-17T06:34:53.823Z,100503.28
2022-10-17T06:35:56.368Z,100500.44
2022-10-17T06:36:58.326Z,100497.31
2022-10-17T06:38:00.076Z,100503.16
2022-10-17T06:39:02.637Z,100508.22
2022-10-17T06:40:05.408Z,100512.44
2022-10-17T06:41:14.336Z,100512.38
2022-10-17T06:42:16.077Z,100510.53
2022-10-17T06:43:17.915Z,100506.69
2022-10-17T06:44:19.779Z,100496.06
2022-10-17T06:45:22.145Z,100512.41
2022-10-17T06:46:27.062Z,100511.44
2022-10-17T06:47:29.085Z,100522.44
2022-10-17T06:48:31.183Z,100510.16
2022-10-17T06:49:34.510Z,100516.94
2022-10-17T06:50:36.695Z,100521.03
2022-10-17T06:51:38.432Z,100513.88
2022-10-17T06:52:40.196Z,100520.56
2022-10-17T06:53:42.401Z,100527.63
2022-10-17T06:54:45.072Z,100508.66
2022-10-17T06:55:52.153Z,100515.34
2022-10-17T06:56:53.877Z,100521.13
2022-10-17T06:57:57.015Z,100522.44
2022-10-17T06:58:58.883Z,100517.66
2022-10-17T07:00:00.901Z,100508.75
2022-10-17T07:01:06.715Z,100514.28
2022-10-17T07:02:09.990Z,100513.78
2022-10-17T07:03:11.964Z,100515.69
2022-10-17T07:04:13.828Z,100529.09
2022-10-17T07:05:16.173Z,100527.88
2022-10-17T07:06:18.120Z,100540.66
2022-10-17T07:07:20.072Z,100540.72
2022-10-17T07:08:22.306Z,100516.00
2022-10-17T07:09:24.634Z,100527.91
2022-10-17T07:10:26.755Z,100533.13
2022-10-17T07:11:28.564Z,100531.97
2022-10-17T07:12:30.328Z,100536.75
2022-10-17T07:13:36.759Z,100540.84
2022-10-17T07:14:41.476Z,100530.16
2022-10-17T07:15:43.846Z,100540.13
2022-10-17T07:16:46.100Z,100548.22
2022-10-17T07:17:51.221Z,100546.00
2022-10-17T07:18:54.320Z,100540.25
2022-10-17T07:19:56.289Z,100546.75
2022-10-17T07:20:58.330Z,100550.50
2022-10-17T07:22:00.168Z,100541.88
2022-10-17T07:23:02.165Z,100547.94
2022-10-17T07:24:04.560Z,100543.97
2022-10-17T07:25:06.969Z,100540.97
2022-10-17T07:26:12.061Z,100544.97
2022-10-17T07:27:14.668Z,100543.44
2022-10-17T07:28:16.670Z,100550.78
2022-10-17T07:29:18.755Z,100545.88
2022-10-17T07:30:21.723Z,100544.31
2022-10-17T07:31:24.175Z,100545.56
2022-10-17T07:32:26.941Z,100548.88
2022-10-17T07:33:28.925Z,100546.03
2022-10-17T07:34:31.697Z,100540.91
2022-10-17T07:35:33.643Z,100551.75
2022-10-17T07:36:35.344Z,100549.63
2022-10-17T07:37:37.212Z,100541.53
2022-10-17T07:38:39.303Z,100554.94
2022-10-17T07:39:41.308Z,100555.09
2022-10-17T07:40:43.210Z,100563.13
2022-10-17T07:41:44.968Z,100556.78
2022-10-17T07:42:47.512Z,100558.56
2022-10-17T07:43:50.289Z,100561.84
2022-10-17T07:44:52.322Z,100555.59
2022-10-17T07:45:54.257Z,100569.75
2022-10-17T07:46:56.112Z,100567.91
2022-10-17T07:47:58.634Z,100569.38
2022-10-17T07:49:00.427Z,100568.97
2022-10-17T07:50:04.272Z,100563.44
2022-10-17T07:51:07.994Z,100566.22
2022-10-17T07:52:14.411Z,100563.91
2022-10-17T07:53:16.300Z,100568.03
2022-10-17T07:54:18.489Z,100558.00
2022-10-17T07:55:20.309Z,100572.31
2022-10-17T07:56:24.708Z,100568.88
2022-10-17T07:57:26.427Z,100568.63
2022-10-17T07:58:29.512Z,100555.56
2022-10-17T07:59:33.028Z,100559.59
2022-10-17T08:00:37.199Z,100572.41
2022-10-17T08:01:39.123Z,100563.59
2022-10-17T08:02:40.989Z,100562.81
2022-10-17T08:03:45.130Z,100563.50
2022-10-17T08:04:46.803Z,100556.31
2022-10-17T08:05:48.893Z,100562.50
2022-10-17T08:06:53.446Z,100563.50
2022-10-17T08:07:58.631Z,100562.00
2022-10-17T08:09:02.161Z,100569.41
2022-10-17T08:10:04.555Z,100573.66
2022-10-17T08:11:12.348Z,100569.63
2022-10-17T08:12:15.291Z,100573.16
2022-10-17T08:13:17.307Z,100578.03
2022-10-17T08:14:19.125Z,100580.66
2022-10-17T08:15:21.015Z,100580.16
2022-10-17T08:16:22.923Z,100580.41
2022-10-17T08:17:24.775Z,100576.56
2022-10-17T08:18:26.470Z,100584.56
2022-10-17T08:19:28.683Z,100582.44
2022-10-17T08:20:30.871Z,100572.25
2022-10-17T08:21:32.694Z,100582.09
2022-10-17T08:22:35.599Z,100567.63
2022-10-17T08:23:37.791Z,100582.69
2022-10-17T08:24:39.679Z,100585.91
2022-10-17T08:25:41.459Z,100587.16
2022-10-17T08:26:46.130Z,100582.31
2022-10-17T08:27:49.645Z,100582.13
2022-10-17T08:28:51.471Z,100577.75
2022-10-17T08:29:54.309Z,100576.81
2022-10-17T08:31:04.519Z,100574.72
2022-10-17T08:32:09.579Z,100577.28
2022-10-17T08:33:11.736Z,100564.38
2022-10-17T08:34:13.557Z,100572.47
2022-10-17T08:35:15.267Z,100565.47
2022-10-17T08:36:18.875Z,100574.09
2022-10-17T08:37:20.543Z,100576.25
2022-10-17T08:38:25.109Z,100573.31
2022-10-17T08:39:28.218Z,100572.94
2022-10-17T08:40:35.620Z,100583.34
2022-10-17T08:41:48.719Z,100578.78
2022-10-17T08:43:05.663Z,100589.38
2022-10-17T08:44:31.297Z,100586.84
2022-10-17T08:45:40.843Z,100591.75
2022-10-17T08:46:45.403Z,100593.81
2022-10-17T08:47:58.003Z,100580.63
2022-10-17T08:49:02.900Z,100602.03
2022-10-17T08:50:11.789Z,100599.03
2022-10-17T08:51:22.883Z,100594.47
2022-10-17T08:52:24.628Z,100598.16
2022-10-17T08:54:05.362Z,100595.38
2022-10-17T08:55:17.487Z,100601.00
2022-10-17T08:56:48.595Z,100600.69
2022-10-17T08:57:51.297Z,100599.28
2022-10-17T08:58:53.161Z,100603.03
2022-10-17T08:59:55.196Z,100604.38
2022-10-17T09:01:39.692Z,100599.47
2022-10-17T09:03:02.779Z,100598.03
2022-10-17T09:04:16.301Z,100602.34
2022-10-17T09:05:31.122Z,100598.13
2022-10-17T09:06:36.955Z,100594.53
2022-10-17T09:07:45.095Z,100594.22
2022-10-17T09:08:58.568Z,100584.75
2022-10-17T09:10:18.595Z,100584.06
2022-10-17T09:11:23.335Z,100596.22
2022-10-17T09:12:52.391Z,100593.69
2022-10-17T09:14:14.823Z,100594.97
2022-10-17T09:15:25.983Z,100589.03
2022-10-17T09:16:49.563Z,100586.16
2022-10-17T09:17:54.338Z,100589.25
2022-10-17T09:19:02.099Z,100599.91
2022-10-17T09:20:23.928Z,100593.16
2022-10-17T09:21:41.118Z,100596.91
2022-10-17T09:22:52.757Z,100597.19
2022-10-17T09:24:09.327Z,100596.66
2022-10-17T09:25:16.137Z,100595.31
2022-10-17T09:26:18.029Z,100584.63
2022-10-17T09:27:22.717Z,100598.34
2022-10-17T09:28:33.948Z,100594.41
2022-10-17T09:29:40.197Z,100598.66
2022-10-17T09:30:47.554Z,100603.03
2022-10-17T09:33:34.366Z,100597.00
2022-10-17T09:34:40.139Z,100589.09
2022-10-17T09:35:42.659Z,100589.91
2022-10-17T09:36:44.570Z,100589.44
2022-10-17T09:37:47.230Z,100586.53
2022-10-17T09:38:53.752Z,100584.66
2022-10-17T09:39:55.605Z,100589.56
2022-10-17T09:41:00.681Z,100583.50
2022-10-17T09:42:03.259Z,100592.09
2022-10-17T09:43:07.937Z,100602.59
2022-10-17T09:44:14.093Z,100597.31
2022-10-17T09:45:27.066Z,100598.03
2022-10-17T09:46:37.777Z,100606.25
2022-10-17T09:47:52.222Z,100611.28
2022-10-17T09:49:11.166Z,100605.59
2022-10-17T09:50:23.144Z,100599.00
2022-10-17T09:51:26.384Z,100614.91
2022-10-17T09:52:39.781Z,100617.59
2022-10-17T09:53:45.360Z,100612.59
2022-10-17T09:54:58.184Z,100614.81
2022-10-17T09:56:04.373Z,100610.00
2022-10-17T09:57:08.926Z,100616.88
2022-10-17T09:58:11.749Z,100612.41
2022-10-17T09:59:13.977Z,100617.44
2022-10-17T10:00:23.379Z,100611.78
2022-10-17T10:01:31.360Z,100611.50
2022-10-17T10:02:40.888Z,100621.31
2022-10-17T10:03:44.308Z,100618.09
2022-10-17T10:05:08.841Z,100620.41
2022-10-17T10:06:19.487Z,100620.63
2022-10-17T10:07:25.643Z,100624.28
2022-10-17T10:08:37.303Z,100615.47
2022-10-17T10:09:41.670Z,100614.56
2022-10-17T10:10:44.788Z,100621.84
2022-10-17T10:11:58.075Z,100611.03
2022-10-17T10:13:17.387Z,100616.41
2022-10-17T10:14:47.351Z,100610.84
2022-10-17T10:15:50.991Z,100619.03
2022-10-17T10:16:53.893Z,100613.94
2022-10-17T10:17:55.607Z,100613.03
2022-10-17T10:18:58.057Z,100609.16
2022-10-17T10:20:00.183Z,100614.00
2022-10-17T10:21:07.085Z,100612.56
2022-10-17T10:22:16.271Z,100593.56
2022-10-17T10:23:21.536Z,100603.06
2022-10-17T10:24:26.969Z,100596.47
2022-10-17T10:25:33.065Z,100597.59
2022-10-17T10:26:46.035Z,100605.97
2022-10-17T10:27:47.817Z,100595.47
2022-10-17T10:28:56.907Z,100609.16
2022-10-17T10:29:59.477Z,100617.00
2022-10-17T10:31:06.120Z,100610.66
2022-10-17T10:32:12.473Z,100615.50
2022-10-17T10:33:14.183Z,100607.78
2022-10-17T10:34:25.066Z,100616.13
2022-10-17T10:35:40.633Z,100613.72
2022-10-17T10:36:57.270Z,100627.69
2022-10-17T10:38:01.991Z,100622.81
2022-10-17T10:39:04.705Z,100611.81
2022-10-17T10:40:18.630Z,100619.34
2022-10-17T10:41:21.375Z,100614.78
2022-10-17T10:42:37.994Z,100611.69
2022-10-17T10:43:44.154Z,100611.72
2022-10-17T10:44:46.621Z,100611.50
2022-10-17T10:45:49.305Z,100612.94
2022-10-17T10:47:15.580Z,100614.66
2022-10-17T10:48:30.568Z,100614.28
2022-10-17T10:49:33.267Z,100615.75
2022-10-17T10:50:45.404Z,100610.84
2022-10-17T10:51:49.442Z,100608.03
2022-10-17T10:52:58.200Z,100603.91
2022-10-17T10:54:13.762Z,100615.09
2022-10-17T10:55:23.785Z,100607.69
2022-10-17T10:56:43.754Z,100607.75
2022-10-17T10:57:49.392Z,100608.06
2022-10-17T10:59:09.668Z,100608.91
2022-10-17T11:00:21.045Z,100606.31
2022-10-17T11:02:08.242Z,100600.72
2022-10-17T11:03:25.503Z,100600.06
2022-10-17T11:04:52.758Z,100607.63
2022-10-17T11:06:19.075Z,100605.06
2022-10-17T11:07:28.980Z,100613.34
2022-10-17T11:09:05.623Z,100604.44
2022-10-17T11:10:23.198Z,100605.22
2022-10-17T11:11:39.615Z,100606.72
2022-10-17T11:13:54.353Z,100607.72
2022-10-17T11:15:08.149Z,100610.44
2022-10-17T11:16:26.258Z,100613.59
2022-10-17T11:17:36.618Z,100614.59
2022-10-17T11:18:55.212Z,100612.41
2022-10-17T11:20:05.831Z,100603.09
2022-10-17T11:21:16.513Z,100602.19
2022-10-17T11:22:32.173Z,100616.84
2022-10-17T11:23:43.283Z,100608.31
2022-10-17T11:24:57.254Z,100609.06
2022-10-17T11:26:04.482Z,100618.78
2022-10-17T11:27:07.180Z,100618.97
2022-10-17T11:28:19.667Z,100618.97
2022-10-17T11:29:26.403Z,100619.84
2022-10-17T11:30:35.090Z,100619.94
2022-10-17T11:31:43.114Z,100629.59
2022-10-17T11:32:59.665Z,100624.34
2022-10-17T11:34:07.792Z,100623.13
2022-10-17T11:35:22.551Z,100623.53
2022-10-17T11:36:31.791Z,100617.88
2022-10-17T11:37:40.229Z,100628.91
2022-10-17T11:38:48.934Z,100630.31
2022-10-17T11:39:56.556Z,100636.03
2022-10-17T11:41:00.023Z,100636.09
2022-10-17T11:42:12.180Z,100634.91
2022-10-17T11:43:17.556Z,100631.38
2022-10-17T11:44:24.833Z,100632.97
2022-10-17T11:45:29.622Z,100635.38
2022-10-17T11:46:36.117Z,100636.44
2022-10-17T11:47:48.354Z,100645.06
2022-10-17T11:49:19.185Z,100640.72
2022-10-17T11:52:02.076Z,100635.03
2022-10-17T11:53:20.813Z,100639.78
2022-10-17T11:54:34.270Z,100632.06
2022-10-17T11:55:38.414Z,100625.78
2022-10-17T11:57:10.738Z,100631.53
2022-10-17T11:58:15.646Z,100635.84
2022-10-17T11:59:41.948Z,100626.03
2022-10-17T12:00:49.873Z,100631.25
2022-10-17T12:01:59.797Z,100640.53
2022-10-17T12:03:35.592Z,100633.59
2022-10-17T12:04:54.894Z,100642.41
2022-10-17T12:06:08.490Z,100625.88
2022-10-17T12:07:38.221Z,100634.50
2022-10-17T12:09:20.013Z,100630.47
2022-10-17T12:10:31.692Z,100621.81
2022-10-17T12:11:54.278Z,100627.88
2022-10-17T12:12:56.235Z,100621.22
2022-10-17T12:13:57.984Z,100622.53
2022-10-17T12:15:23.688Z,100620.47
2022-10-17T12:16:25.337Z,100626.56
2022-10-17T12:17:39.431Z,100617.22
2022-10-17T12:18:41.850Z,100622.75
2022-10-17T12:19:43.758Z,100627.72
2022-10-17T12:20:59.785Z,100617.88
2022-10-17T12:22:20.844Z,100620.38
2022-10-17T12:23:30.669Z,100632.22
2022-10-17T12:24:38.867Z,100624.47
2022-10-17T12:25:57.087Z,100616.34
2022-10-17T12:27:39.995Z,100615.19
2022-10-17T12:28:44.559Z,100617.50
2022-10-17T12:29:48.535Z,100617.00
2022-10-17T12:30:52.430Z,100618.91
2022-10-17T12:31:54.565Z,100608.63
2022-10-17T12:33:14.457Z,100615.50
2022-10-17T12:34:20.331Z,100615.41
2022-10-17T12:35:24.086Z,100611.53
2022-10-17T12:36:25.963Z,100612.66
2022-10-17T12:37:58.556Z,100616.00
2022-10-17T12:39:03.943Z,100618.19
2022-10-17T12:40:34.665Z,100603.22
2022-10-17T12:41:39.499Z,100605.16
2022-10-17T12:42:49.880Z,100609.22
2022-10-17T12:43:53.669Z,100600.91
2022-10-17T12:44:55.313Z,100600.97
2022-10-17T12:46:00.408Z,100603.97